createdAt,value
2022-12-06T00:01:23.312Z,5.43
2022-12-06T00:03:56.613Z,4.88
2022-12-06T00:06:25.729Z,4.18
2022-12-06T00:08:53.085Z,4.15
2022-12-06T00:11:22.891Z,4.25
2022-12-06T00:14:14.430Z,3.80
2022-12-06T00:16:41.762Z,3.85
2022-12-06T00:19:12.794Z,3.97
2022-12-06T00:21:40.216Z,3.88
2022-12-06T00:24:13.637Z,4.10
2022-12-06T00:26:43.021Z,4.60
2022-12-06T00:29:21.779Z,4.63
2022-12-06T00:31:50.655Z,4.10
2022-12-06T00:34:18.029Z,4.47
2022-12-06T00:36:45.163Z,4.35
2022-12-06T00:39:14.742Z,4.63
2022-12-06T00:41:42.971Z,4.68
2022-12-06T00:44:11.317Z,4.05
2022-12-06T00:46:38.770Z,4.05
2022-12-06T00:49:07.702Z,4.45
2022-12-06T00:51:36.144Z,4.15
2022-12-06T00:54:03.801Z,3.70
2022-12-06T00:56:31.578Z,4.03
2022-12-06T00:58:58.840Z,4.25
2022-12-06T01:01:28.541Z,3.35
2022-12-06T01:03:59.224Z,3.75
2022-12-06T01:06:29.616Z,4.00
2022-12-06T01:08:58.891Z,4.03
2022-12-06T01:11:27.116Z,3.40
2022-12-06T01:13:54.400Z,4.28
2022-12-06T01:16:24.965Z,3.78
2022-12-06T01:18:54.400Z,3.75
2022-12-06T01:21:22.111Z,4.57
2022-12-06T01:23:49.495Z,4.35
2022-12-06T01:26:28.155Z,4.97
2022-12-06T01:28:55.441Z,4.15
2022-12-06T01:31:22.444Z,4.57
2022-12-06T01:33:49.515Z,4.00
2022-12-06T01:36:18.576Z,4.50
2022-12-06T01:38:49.806Z,4.50
2022-12-06T01:41:17.164Z,4.45
2022-12-06T01:43:45.155Z,3.60
2022-12-06T01:46:39.153Z,3.67
2022-12-06T01:49:12.292Z,3.75
2022-12-06T01:51:44.839Z,4.10
2022-12-06T01:54:13.884Z,4.22
2022-12-06T01:56:41.498Z,4.70
2022-12-06T01:59:10.376Z,4.47
2022-12-06T02:01:38.875Z,5.10
2022-12-06T02:04:07.077Z,4.57
2022-12-06T02:06:35.204Z,5.60
2022-12-06T02:09:06.348Z,4.90
2022-12-06T02:11:35.707Z,5.28
2022-12-06T02:14:13.362Z,4.60
2022-12-06T02:17:10.844Z,4.55
2022-12-06T02:20:11.546Z,4.72
2022-12-06T02:22:50.529Z,4.65
2022-12-06T02:25:44.550Z,4.40
2022-12-06T02:28:40.101Z,4.43
2022-12-06T02:31:28.450Z,4.45
2022-12-06T02:34:20.904Z,4.85
2022-12-06T02:37:09.253Z,4.05
2022-12-06T02:40:11.724Z,3.65
2022-12-06T02:42:57.916Z,3.40
2022-12-06T02:45:31.802Z,3.72
2022-12-06T02:48:03.164Z,3.95
2022-12-06T02:50:35.926Z,3.78
2022-12-06T02:53:04.413Z,3.67
2022-12-06T02:55:33.942Z,3.30
2022-12-06T02:58:01.108Z,4.07
2022-12-06T03:00:36.199Z,4.20
2022-12-06T03:03:11.782Z,5.07
2022-12-06T03:06:02.920Z,5.05
2022-12-06T03:08:32.683Z,4.20
2022-12-06T03:11:02.562Z,5.05
2022-12-06T03:13:53.196Z,5.07
2022-12-06T03:16:46.694Z,4.85
2022-12-06T03:22:00.786Z,4.07
2022-12-06T03:24:30.999Z,4.43
2022-12-06T03:27:01.498Z,4.53
2022-12-06T03:29:31.579Z,4.50
2022-12-06T03:32:02.893Z,4.82
2022-12-06T03:34:38.104Z,5.35
2022-12-06T03:37:07.543Z,5.28
2022-12-06T03:39:46.452Z,5.15
2022-12-06T03:42:13.976Z,4.70
2022-12-06T03:44:41.000Z,5.57
2022-12-06T03:47:40.403Z,4.97
2022-12-06T03:50:31.242Z,4.65
2022-12-06T03:52:59.699Z,4.45
2022-12-06T03:55:26.765Z,4.32
2022-12-06T03:57:53.741Z,3.78
2022-12-06T04:00:20.934Z,4.15
2022-12-06T04:02:48.020Z,4.30
2022-12-06T04:05:15.146Z,3.90
2022-12-06T04:07:42.215Z,5.07
2022-12-06T04:10:09.662Z,5.50
2022-12-06T04:12:55.629Z,7.10
2022-12-06T04:15:23.346Z,6.32
2022-12-06T04:18:09.297Z,8.43
2022-12-06T04:21:18.917Z,8.30
2022-12-06T04:23:51.468Z,8.23
2022-12-06T04:26:21.036Z,7.80
2022-12-06T04:29:07.421Z,11.55
2022-12-06T04:31:53.502Z,6.70
2022-12-06T04:34:39.586Z,9.50
2022-12-06T04:37:26.013Z,8.48
2022-12-06T04:39:53.050Z,6.75
2022-12-06T04:42:38.521Z,7.28
2022-12-06T04:45:06.447Z,8.38
2022-12-06T04:47:33.490Z,7.10
2022-12-06T04:50:01.024Z,7.80
2022-12-06T04:52:34.053Z,7.07
2022-12-06T04:55:03.131Z,7.63
2022-12-06T04:57:30.130Z,7.63
2022-12-06T04:59:57.239Z,7.93
2022-12-06T05:02:24.337Z,8.50
2022-12-06T05:04:51.340Z,8.45
2022-12-06T05:07:18.375Z,7.93
2022-12-06T05:09:45.367Z,8.75
2022-12-06T05:12:12.391Z,7.97
2022-12-06T05:14:39.305Z,8.32
2022-12-06T05:17:06.439Z,8.18
2022-12-06T05:19:33.575Z,7.93
2022-12-06T05:22:00.750Z,8.93
2022-12-06T05:24:27.745Z,8.68
2022-12-06T05:26:54.783Z,7.50
2022-12-06T05:29:22.014Z,7.63
2022-12-06T05:31:49.228Z,7.20
2022-12-06T05:34:17.352Z,7.88
2022-12-06T05:36:46.022Z,7.03
2022-12-06T05:39:13.118Z,7.70
2022-12-06T05:41:40.207Z,6.55
2022-12-06T05:44:07.395Z,6.63
2022-12-06T05:46:34.634Z,6.95
2022-12-06T05:49:01.561Z,7.18
2022-12-06T05:51:28.655Z,7.50
2022-12-06T05:53:55.616Z,6.65
2022-12-06T05:56:22.672Z,6.60
2022-12-06T05:58:49.611Z,7.20
2022-12-06T06:01:16.640Z,8.95
2022-12-06T06:03:47.536Z,9.80
2022-12-06T06:06:15.667Z,10.93
2022-12-06T06:08:42.938Z,9.25
2022-12-06T06:11:10.115Z,9.52
2022-12-06T06:13:37.116Z,10.73
2022-12-06T06:16:04.528Z,9.40
2022-12-06T06:18:31.609Z,10.15
2022-12-06T06:21:00.131Z,14.05
2022-12-06T06:23:28.503Z,13.50
2022-12-06T06:25:56.238Z,12.23
2022-12-06T06:28:23.937Z,14.95
2022-12-06T06:30:51.209Z,15.50
2022-12-06T06:33:18.241Z,17.27
2022-12-06T06:35:45.207Z,16.25
2022-12-06T06:38:12.891Z,14.43
2022-12-06T06:40:40.335Z,14.70
2022-12-06T06:43:20.232Z,13.02
2022-12-06T06:45:58.550Z,11.25
2022-12-06T06:48:27.154Z,15.02
2022-12-06T06:50:57.620Z,11.88
2022-12-06T06:53:27.694Z,10.43
2022-12-06T06:55:55.437Z,12.85
2022-12-06T06:58:22.971Z,20.60
2022-12-06T07:00:55.383Z,13.75
2022-12-06T07:03:23.261Z,19.15
2022-12-06T07:05:54.973Z,16.75
2022-12-06T07:08:22.573Z,12.13
2022-12-06T07:10:49.766Z,11.32
2022-12-06T07:13:18.471Z,11.00
2022-12-06T07:15:45.837Z,8.95
2022-12-06T07:18:12.858Z,9.18
2022-12-06T07:20:39.953Z,8.80
2022-12-06T07:23:06.963Z,8.65
2022-12-06T07:25:34.101Z,9.00
2022-12-06T07:28:01.514Z,9.55
2022-12-06T07:30:28.700Z,9.27
2022-12-06T07:32:55.818Z,9.10
2022-12-06T07:35:23.431Z,9.07
2022-12-06T07:37:50.691Z,8.50
2022-12-06T07:40:23.556Z,9.88
2022-12-06T07:43:20.664Z,9.20
2022-12-06T07:45:47.586Z,9.32
2022-12-06T07:48:15.247Z,10.38
2022-12-06T07:50:42.240Z,10.52
2022-12-06T07:53:09.272Z,9.52
2022-12-06T07:55:36.282Z,10.95
2022-12-06T07:58:03.169Z,11.52
2022-12-06T08:00:30.421Z,11.73
2022-12-06T08:02:57.326Z,12.88
2022-12-06T08:05:24.470Z,11.23
2022-12-06T08:07:51.552Z,11.90
2022-12-06T08:10:18.648Z,11.13
2022-12-06T08:12:45.550Z,13.95
2022-12-06T08:15:15.332Z,13.73
2022-12-06T08:17:42.464Z,16.33
2022-12-06T08:20:10.446Z,13.55
2022-12-06T08:22:37.354Z,13.52
2022-12-06T08:25:04.561Z,12.10
2022-12-06T08:27:31.500Z,12.77
2022-12-06T08:29:58.697Z,11.90
2022-12-06T08:32:25.964Z,12.25
2022-12-06T08:34:52.853Z,11.88
2022-12-06T08:37:19.828Z,11.60
2022-12-06T08:39:46.802Z,12.00
2022-12-06T08:42:13.737Z,8.90
2022-12-06T08:44:40.881Z,14.73
2022-12-06T08:47:11.180Z,16.67
2022-12-06T08:49:38.230Z,14.20
2022-12-06T08:52:05.427Z,13.15
2022-12-06T08:54:34.539Z,13.32
2022-12-06T08:57:01.506Z,13.43
2022-12-06T08:59:28.718Z,12.15
2022-12-06T09:01:55.833Z,11.10
2022-12-06T09:04:23.554Z,23.05
2022-12-06T09:06:50.767Z,20.67
2022-12-06T09:09:18.675Z,11.95
2022-12-06T09:11:46.880Z,12.57
2022-12-06T09:14:21.463Z,11.60
2022-12-06T09:16:52.420Z,13.50
2022-12-06T09:19:20.622Z,13.38
2022-12-06T09:21:47.687Z,11.32
2022-12-06T09:24:16.417Z,11.77
2022-12-06T09:26:43.779Z,10.98
2022-12-06T09:29:11.570Z,11.43
2022-12-06T09:31:40.383Z,10.23
2022-12-06T09:34:11.974Z,11.02
2022-12-06T09:36:48.283Z,10.70
2022-12-06T09:39:33.518Z,10.98
2022-12-06T09:42:27.444Z,11.02
2022-12-06T09:45:20.500Z,10.32
2022-12-06T09:48:23.645Z,11.27
2022-12-06T09:50:59.785Z,11.93
2022-12-06T09:53:58.702Z,11.63
2022-12-06T09:56:25.713Z,11.75
2022-12-06T09:58:58.751Z,10.80
2022-12-06T10:04:24.656Z,11.57
2022-12-06T10:07:14.916Z,14.47
2022-12-06T10:10:14.038Z,13.60
2022-12-06T10:12:52.875Z,13.40
2022-12-06T10:15:25.688Z,19.58
2022-12-06T10:18:17.385Z,10.75
2022-12-06T10:21:11.473Z,11.38
2022-12-06T10:24:06.198Z,11.60
2022-12-06T10:26:42.052Z,11.23
2022-12-06T10:29:29.077Z,12.98
2022-12-06T10:32:05.992Z,11.52
2022-12-06T10:34:55.926Z,11.27
2022-12-06T10:37:23.439Z,11.32
2022-12-06T10:40:01.725Z,14.07
2022-12-06T10:42:43.928Z,11.85
2022-12-06T10:45:44.756Z,11.60
2022-12-06T10:48:26.802Z,13.38
2022-12-06T10:51:03.458Z,11.30
2022-12-06T10:53:35.081Z,10.93
2022-12-06T10:56:13.681Z,10.70
2022-12-06T10:59:01.229Z,11.60
2022-12-06T11:01:33.623Z,13.98
2022-12-06T11:04:12.647Z,12.13
2022-12-06T11:06:50.022Z,11.82
2022-12-06T11:09:31.961Z,11.48
2022-12-06T11:11:59.594Z,10.48
2022-12-06T11:14:42.008Z,11.32
2022-12-06T11:17:29.284Z,10.23
2022-12-06T11:20:04.566Z,10.35
2022-12-06T11:22:47.446Z,10.50
2022-12-06T11:25:26.060Z,10.32
2022-12-06T11:28:00.888Z,11.55
2022-12-06T11:30:30.418Z,10.95
2022-12-06T11:32:57.773Z,11.35
2022-12-06T11:35:27.773Z,10.55
2022-12-06T11:38:00.341Z,11.15
2022-12-06T11:40:34.232Z,11.48
2022-12-06T11:43:05.053Z,10.15
2022-12-06T11:45:34.069Z,10.23
2022-12-06T11:48:10.934Z,10.20
2022-12-06T11:50:38.127Z,9.80
2022-12-06T11:53:27.016Z,10.23
2022-12-06T11:55:58.122Z,9.95
2022-12-06T11:58:35.094Z,10.73
2022-12-06T12:01:06.332Z,10.65
2022-12-06T12:03:36.571Z,10.35
2022-12-06T12:06:30.082Z,11.07
2022-12-06T12:11:31.520Z,9.68
2022-12-06T12:14:02.565Z,11.27
2022-12-06T12:16:46.702Z,11.25
2022-12-06T12:19:22.481Z,9.95
2022-12-06T12:21:54.049Z,10.52
2022-12-06T12:25:17.283Z,10.73
2022-12-06T12:27:36.082Z,10.73
2022-12-06T12:30:22.176Z,10.40
2022-12-06T12:32:51.399Z,10.55
2022-12-06T12:35:30.677Z,10.88
2022-12-06T12:38:19.742Z,10.32
2022-12-06T12:40:51.006Z,10.23
2022-12-06T12:43:21.155Z,11.05
2022-12-06T12:46:10.031Z,11.43
2022-12-06T12:48:38.864Z,10.02
2022-12-06T12:51:19.480Z,11.07
2022-12-06T12:53:48.368Z,10.35
2022-12-06T12:56:18.120Z,10.75
2022-12-06T12:58:48.262Z,10.77
2022-12-06T13:01:24.475Z,10.02
2022-12-06T13:04:07.322Z,10.77
2022-12-06T13:06:52.889Z,10.77
2022-12-06T13:09:32.627Z,11.23
2022-12-06T13:12:05.819Z,11.05
2022-12-06T13:14:35.742Z,10.25
2022-12-06T13:17:08.080Z,12.02
2022-12-06T13:19:50.194Z,10.77
2022-12-06T13:22:35.663Z,12.52
2022-12-06T13:25:06.765Z,11.75
2022-12-06T13:27:37.645Z,10.38
2022-12-06T13:30:15.917Z,10.57
2022-12-06T13:32:51.724Z,10.48
2022-12-06T13:35:18.975Z,12.50
2022-12-06T13:37:53.142Z,12.00
2022-12-06T13:40:32.733Z,12.00
2022-12-06T13:43:06.125Z,10.70
2022-12-06T13:45:47.093Z,15.70
2022-12-06T13:48:26.226Z,12.07
2022-12-06T13:50:54.874Z,13.73
2022-12-06T13:53:23.896Z,11.32
2022-12-06T13:55:59.785Z,9.98
2022-12-06T13:58:26.906Z,9.52
2022-12-06T14:00:56.167Z,9.23
2022-12-06T14:03:25.702Z,9.45
2022-12-06T14:06:15.632Z,10.88
2022-12-06T14:08:46.979Z,9.80
2022-12-06T14:11:17.045Z,10.90
2022-12-06T14:14:09.139Z,9.90
2022-12-06T14:17:00.511Z,9.05
2022-12-06T14:19:45.979Z,18.45
2022-12-06T14:22:30.275Z,10.30
2022-12-06T14:25:18.965Z,10.32
2022-12-06T14:27:48.810Z,10.05
2022-12-06T14:30:25.591Z,10.02
2022-12-06T14:32:59.031Z,9.80
2022-12-06T14:35:25.976Z,9.45
2022-12-06T14:37:55.130Z,10.68
2022-12-06T14:40:45.865Z,10.48
2022-12-06T14:43:17.966Z,9.57
2022-12-06T14:45:46.635Z,10.32
2022-12-06T14:48:14.012Z,9.27
2022-12-06T14:50:53.102Z,13.02
2022-12-06T14:53:33.313Z,8.90
2022-12-06T14:56:04.791Z,9.07
2022-12-06T14:58:40.246Z,10.77
2022-12-06T15:01:18.671Z,21.38
2022-12-06T15:03:56.359Z,11.15
2022-12-06T15:06:25.569Z,19.02
2022-12-06T15:09:12.077Z,10.10
2022-12-06T15:12:00.153Z,16.02
2022-12-06T15:14:48.764Z,10.77
2022-12-06T15:17:19.127Z,9.38
2022-12-06T15:19:51.693Z,9.55
2022-12-06T15:22:25.566Z,10.10
2022-12-06T15:24:55.429Z,9.95
2022-12-06T15:27:23.437Z,12.63
2022-12-06T15:29:50.566Z,13.32
2022-12-06T15:32:19.329Z,14.05
2022-12-06T15:34:46.624Z,10.55
2022-12-06T15:37:38.141Z,11.23
2022-12-06T15:40:04.263Z,11.68
2022-12-06T15:42:31.348Z,9.23
2022-12-06T15:44:58.316Z,8.07
2022-12-06T15:47:25.357Z,12.45
2022-12-06T15:49:53.964Z,10.82
2022-12-06T15:52:26.113Z,9.40
2022-12-06T15:54:53.034Z,10.57
2022-12-06T15:57:20.076Z,8.15
2022-12-06T15:59:46.991Z,7.80
2022-12-06T16:02:16.208Z,7.40
2022-12-06T16:04:44.508Z,8.77
2022-12-06T16:07:12.072Z,8.70
2022-12-06T16:09:39.059Z,9.50
2022-12-06T16:12:06.402Z,8.57
2022-12-06T16:14:33.315Z,7.43
2022-12-06T16:17:00.328Z,8.20
2022-12-06T16:19:49.938Z,8.20
2022-12-06T16:22:17.169Z,11.10
2022-12-06T16:24:46.265Z,12.35
2022-12-06T16:27:16.887Z,15.57
2022-12-06T16:29:44.371Z,16.05
2022-12-06T16:32:12.678Z,15.90
2022-12-06T16:34:40.729Z,16.08
2022-12-06T16:37:12.270Z,19.75
2022-12-06T16:39:39.690Z,19.10
2022-12-06T16:42:07.128Z,17.58
2022-12-06T16:44:50.756Z,16.52
2022-12-06T16:47:17.829Z,14.98
2022-12-06T16:49:49.124Z,14.98
2022-12-06T16:52:17.337Z,13.77
2022-12-06T16:54:44.345Z,12.27
2022-12-06T16:57:11.966Z,14.05
2022-12-06T16:59:39.217Z,13.82
2022-12-06T17:02:24.426Z,13.18
2022-12-06T17:04:51.443Z,13.30
2022-12-06T17:07:18.523Z,11.95
2022-12-06T17:09:45.411Z,12.98
2022-12-06T17:12:15.076Z,15.50
2022-12-06T17:14:42.859Z,16.73
2022-12-06T17:17:18.342Z,13.70
2022-12-06T17:19:45.333Z,12.95
2022-12-06T17:22:16.398Z,18.00
2022-12-06T17:24:43.809Z,18.73
2022-12-06T17:27:14.541Z,30.05
2022-12-06T17:29:43.107Z,18.35
2022-12-06T17:32:10.300Z,16.08
2022-12-06T17:34:37.715Z,18.38
2022-12-06T17:37:06.207Z,19.40
2022-12-06T17:39:33.695Z,15.68
2022-12-06T17:42:19.397Z,13.45
2022-12-06T17:44:46.411Z,12.75
2022-12-06T17:47:13.486Z,12.75
2022-12-06T17:49:41.584Z,12.63
2022-12-06T17:52:10.141Z,12.25
2022-12-06T17:54:37.109Z,13.80
2022-12-06T17:57:04.364Z,12.27
2022-12-06T17:59:33.413Z,12.25
2022-12-06T18:02:17.998Z,13.30
2022-12-06T18:04:47.458Z,12.70
2022-12-06T18:07:15.519Z,13.23
2022-12-06T18:09:42.707Z,16.48
2022-12-06T18:12:12.129Z,12.85
2022-12-06T18:14:39.139Z,12.63
2022-12-06T18:17:06.220Z,12.93
2022-12-06T18:19:33.893Z,13.30
2022-12-06T18:22:00.924Z,13.45
2022-12-06T18:24:33.479Z,14.27
2022-12-06T18:27:03.241Z,16.02
2022-12-06T18:29:30.445Z,13.90
2022-12-06T18:31:58.183Z,12.65
2022-12-06T18:34:25.384Z,12.32
2022-12-06T18:36:52.436Z,12.23
2022-12-06T18:39:26.437Z,12.70
2022-12-06T18:41:54.517Z,12.93
2022-12-06T18:44:22.639Z,13.73
2022-12-06T18:46:49.831Z,14.00
2022-12-06T18:49:16.911Z,11.80
2022-12-06T18:51:44.818Z,11.35
2022-12-06T18:54:13.885Z,12.88
2022-12-06T18:56:41.354Z,12.45
2022-12-06T18:59:08.959Z,13.90
2022-12-06T19:01:37.777Z,13.43
2022-12-06T19:04:06.874Z,13.15
2022-12-06T19:06:36.398Z,12.68
2022-12-06T19:09:10.175Z,12.93
2022-12-06T19:11:39.085Z,11.02
2022-12-06T19:14:06.328Z,12.98
2022-12-06T19:16:38.030Z,12.00
2022-12-06T19:19:12.785Z,11.90
2022-12-06T19:21:44.039Z,12.85
2022-12-06T19:24:20.042Z,13.38
2022-12-06T19:26:47.463Z,13.80
2022-12-06T19:29:15.862Z,16.35
2022-12-06T19:31:43.815Z,12.93
2022-12-06T19:34:22.606Z,13.35
2022-12-06T19:36:51.056Z,13.38
2022-12-06T19:39:19.611Z,14.05
2022-12-06T19:42:06.476Z,14.38
2022-12-06T19:44:33.516Z,13.68
2022-12-06T19:47:00.632Z,11.35
2022-12-06T19:49:28.504Z,10.90
2022-12-06T19:51:55.770Z,12.80
2022-12-06T19:54:28.982Z,10.90
2022-12-06T19:56:58.043Z,11.98
2022-12-06T19:59:28.136Z,10.75
2022-12-06T20:01:58.260Z,11.68
2022-12-06T20:04:31.391Z,10.70
2022-12-06T20:09:27.487Z,10.25
2022-12-06T20:12:01.831Z,10.35
2022-12-06T20:14:34.259Z,16.88
2022-12-06T20:17:02.484Z,18.38
2022-12-06T20:19:29.541Z,23.88
2022-12-06T20:21:56.729Z,21.35
2022-12-06T20:24:23.808Z,18.38
2022-12-06T20:26:53.543Z,21.25
2022-12-06T20:29:21.601Z,15.15
2022-12-06T20:31:51.687Z,14.35
2022-12-06T20:34:19.642Z,12.77
2022-12-06T20:36:47.473Z,13.73
2022-12-06T20:39:22.417Z,12.98
2022-12-06T20:41:50.132Z,13.52
2022-12-06T20:44:17.986Z,11.00
2022-12-06T20:46:45.543Z,12.40
2022-12-06T20:49:12.971Z,11.60
2022-12-06T20:51:40.297Z,10.90
2022-12-06T20:54:08.069Z,10.85
2022-12-06T20:56:37.279Z,10.10
2022-12-06T20:59:05.997Z,10.52
2022-12-06T21:01:36.873Z,10.52
2022-12-06T21:04:03.995Z,10.07
2022-12-06T21:06:31.077Z,10.35
2022-12-06T21:08:58.147Z,10.38
2022-12-06T21:11:26.218Z,10.63
2022-12-06T21:13:55.233Z,9.30
2022-12-06T21:16:26.331Z,10.68
2022-12-06T21:19:00.796Z,10.85
2022-12-06T21:21:30.677Z,10.70
2022-12-06T21:24:02.395Z,11.13
2022-12-06T21:26:30.215Z,13.02
2022-12-06T21:28:57.927Z,12.60
2022-12-06T21:31:38.380Z,10.73
2022-12-06T21:34:05.883Z,10.13
2022-12-06T21:36:33.603Z,11.00
2022-12-06T21:39:01.707Z,10.98
2022-12-06T21:41:30.211Z,11.48
2022-12-06T21:43:57.351Z,11.45
2022-12-06T21:46:26.776Z,10.57
2022-12-06T21:48:59.013Z,10.02
2022-12-06T21:51:28.498Z,10.02
2022-12-06T21:53:55.835Z,10.18
2022-12-06T21:56:25.354Z,11.07
2022-12-06T21:58:52.962Z,12.00
2022-12-06T22:01:25.445Z,12.90
2022-12-06T22:03:54.301Z,13.40
2022-12-06T22:06:21.937Z,11.57
2022-12-06T22:08:55.496Z,12.32
2022-12-06T22:11:22.578Z,12.23
2022-12-06T22:13:49.852Z,11.15
2022-12-06T22:16:17.251Z,12.25
2022-12-06T22:18:46.198Z,11.82
2022-12-06T22:21:22.092Z,11.50
2022-12-06T22:23:49.067Z,11.38
2022-12-06T22:26:19.718Z,11.35
2022-12-06T22:28:47.393Z,11.52
2022-12-06T22:31:25.791Z,11.35
2022-12-06T22:33:52.901Z,11.02
2022-12-06T22:36:21.568Z,10.98
2022-12-06T22:38:53.435Z,11.80
2022-12-06T22:41:20.808Z,11.63
2022-12-06T22:43:52.547Z,12.40
2022-12-06T22:46:20.870Z,12.05
2022-12-06T22:48:48.149Z,11.45
2022-12-06T22:51:29.633Z,11.82
2022-12-06T22:54:02.165Z,11.45
2022-12-06T22:56:30.483Z,10.98
2022-12-06T22:58:59.088Z,11.50
2022-12-06T23:01:34.395Z,11.43
2022-12-06T23:04:03.699Z,11.75
2022-12-06T23:06:31.445Z,11.55
2022-12-06T23:08:58.466Z,11.65
2022-12-06T23:11:28.061Z,12.00
2022-12-06T23:13:56.654Z,11.18
2022-12-06T23:16:26.355Z,11.57
2022-12-06T23:18:53.812Z,11.65
2022-12-06T23:21:25.797Z,12.00
2022-12-06T23:23:58.504Z,11.80
2022-12-06T23:26:31.496Z,12.23
2022-12-06T23:28:58.658Z,12.35
2022-12-06T23:31:28.651Z,11.85
2022-12-06T23:34:13.737Z,11.80
2022-12-06T23:36:41.124Z,11.02
2022-12-06T23:39:08.285Z,11.57
2022-12-06T23:41:36.209Z,12.02
2022-12-06T23:44:04.379Z,11.82
2022-12-06T23:46:34.169Z,12.63
2022-12-06T23:49:01.345Z,12.60
2022-12-06T23:51:34.176Z,10.73
2022-12-06T23:54:03.337Z,11.75
2022-12-06T23:56:33.099Z,12.80
2022-12-06T23:59:00.597Z,12.02
